Acacia Lake, Texas
Current Conditions -  °F | °C
As of 6:53 PM on Friday 24 Oct 2014 (Local Time) from KBRO Reporting Station
Clear Clear  
Wind Chill: 76°   Ceiling: Unl
Heat Index: 76°   Visibility: 10mi
Dew Point: 64°   Wind: 7mph
Humidity: 67%   Direction: 30°NNE
Pressure: 30.09"   Gusts: NA
Location:  26.0002°N, 97.5729°W
Report Text: KBRO 242353Z 03006KT 10SM CLR 24/18 A3009 RMK AO2 SLP187 T02440178 10300 20244 53005
Loading
Personal Weather Stations






























Interactive Weather Map New forecast layout! Learn more

10-Day Weather Forecast

Advertisements
Track Severe Weather on mobile